< < Back
Terminal Aerodrome Forecast


Current Version              Previous Versions:   1  2  3  4  5  6  7  8  9  

Terminal Aerodrome Forecast

111
FTUS44 KBMX 230800 AAA
TAFANB
TAF AMD
KANB 230838Z 2309/2406 VRB03KT 2SM BR BKN005
      TEMPO 2309/2313 00000KT 1SM BR SCT003
     FM231300 VRB03KT 4SM BR SKC
     FM231500 02006KT P6SM SKC=



Latest METAR

236
SAUS70 KWBC 232000 RRE
MTRANB
METAR KANB 231953Z AUTO 00000KT 10SM CLR 24/04 A2994 RMK AO2 SLP134
T02440044


USA.gov is the U.S. government's official web portal to all federal, state and local government web resources and services.